createdAt,value
2023-02-01T00:00:13.731Z,97931.10
2023-02-01T00:03:21.173Z,97928.13
2023-02-01T00:06:28.766Z,97928.41
2023-02-01T00:09:14.866Z,97930.80
2023-02-01T00:11:48.135Z,97928.86
2023-02-01T00:14:54.510Z,97928.52
2023-02-01T00:17:41.342Z,97921.69
2023-02-01T00:20:23.899Z,97917.09
2023-02-01T00:23:27.430Z,97909.70
2023-02-01T00:26:22.380Z,97910.73
2023-02-01T00:29:21.329Z,97905.89
2023-02-01T00:32:08.173Z,97901.82
2023-02-01T00:34:56.428Z,97897.15
2023-02-01T00:38:23.250Z,97891.54
2023-02-01T00:41:26.700Z,97886.98
2023-02-01T00:45:11.457Z,97886.66
2023-02-01T00:48:15.787Z,97876.11
2023-02-01T00:51:08.272Z,97867.56
2023-02-01T00:54:38.855Z,97851.73
2023-02-01T00:57:08.524Z,97848.50
2023-02-01T00:59:41.420Z,97846.02
2023-02-01T01:02:15.221Z,97843.55
2023-02-01T01:05:01.973Z,97843.95
2023-02-01T01:08:09.300Z,97836.17
2023-02-01T01:10:41.992Z,97831.41
2023-02-01T01:13:22.940Z,97821.79
2023-02-01T05:19:39.030Z,97656.82
2023-02-01T05:22:15.403Z,97652.31
2023-02-01T05:24:42.790Z,97650.74
2023-02-01T05:27:10.655Z,97653.36
2023-02-01T05:29:50.145Z,97659.77
2023-02-01T05:32:22.482Z,97656.58
2023-02-01T05:34:50.397Z,97662.34
2023-02-01T05:37:25.677Z,97667.73
2023-02-01T05:39:53.506Z,97666.38
2023-02-01T05:42:20.944Z,97666.14
2023-02-01T05:44:55.880Z,97668.75
2023-02-01T05:47:35.835Z,97668.80
2023-02-01T05:50:14.818Z,97663.14
2023-02-01T05:52:45.167Z,97665.92
2023-02-01T05:55:12.561Z,97665.65
2023-02-01T05:58:09.733Z,97667.05
2023-02-01T06:01:01.929Z,97669.95
2023-02-01T06:04:16.841Z,97673.99
2023-02-01T06:07:02.776Z,97679.45
2023-02-01T06:09:48.169Z,97681.77
2023-02-01T06:12:18.479Z,97681.91
2023-02-01T06:14:57.929Z,97684.73
2023-02-01T06:17:38.183Z,97684.86
2023-02-01T06:20:36.608Z,97685.63
2023-02-01T06:23:13.194Z,97693.50
2023-02-01T06:25:43.380Z,97697.39
2023-02-01T06:28:10.374Z,97704.70
2023-02-01T06:30:49.152Z,97713.60
2023-02-01T06:33:28.906Z,97714.71
2023-02-01T06:36:42.267Z,97718.54
2023-02-01T06:39:22.590Z,97722.27
2023-02-01T06:42:10.179Z,97724.25
2023-02-01T06:44:47.462Z,97720.24
2023-02-01T06:47:14.509Z,97716.98
2023-02-01T06:49:47.115Z,97718.46
2023-02-01T06:52:30.399Z,97723.20
2023-02-01T06:54:57.861Z,97725.99
2023-02-01T06:57:31.511Z,97726.80
2023-02-01T07:00:01.341Z,97728.30
2023-02-01T07:02:28.988Z,97730.02
2023-02-01T07:05:22.049Z,97730.88
2023-02-01T07:08:02.064Z,97730.46
2023-02-01T07:10:31.441Z,97733.48
2023-02-01T07:13:04.986Z,97736.71
2023-02-01T07:15:32.332Z,97743.29
2023-02-01T07:18:02.735Z,97743.14
2023-02-01T07:20:33.069Z,97741.10
2023-02-01T07:23:02.862Z,97743.17
2023-02-01T07:25:35.390Z,97747.11
2023-02-01T07:28:03.094Z,97744.30
2023-02-01T07:30:31.301Z,97739.84
2023-02-01T07:33:02.208Z,97746.34
2023-02-01T07:35:42.045Z,97748.24
2023-02-01T07:38:09.932Z,97754.42
2023-02-01T07:40:37.412Z,97757.48
2023-02-01T07:43:12.467Z,97760.23
2023-02-01T07:45:42.913Z,97760.06
2023-02-01T07:48:10.439Z,97759.16
2023-02-01T07:50:47.707Z,97759.84
2023-02-01T07:53:22.443Z,97761.31
2023-02-01T07:55:52.168Z,97762.02
2023-02-01T07:58:36.233Z,97764.05
2023-02-01T08:01:22.206Z,97760.23
2023-02-01T08:03:50.754Z,97759.02
2023-02-01T08:06:20.477Z,97759.88
2023-02-01T08:08:56.491Z,97766.19
2023-02-01T08:11:25.035Z,97766.79
2023-02-01T08:13:52.425Z,97762.33
2023-02-01T08:16:40.509Z,97766.34
2023-02-01T08:19:07.880Z,97768.42
2023-02-01T08:21:38.145Z,97770.16
2023-02-01T08:24:09.407Z,97764.55
2023-02-01T08:26:39.264Z,97762.85
2023-02-01T08:29:07.244Z,97759.27
2023-02-01T08:31:44.933Z,97768.67
2023-02-01T08:34:27.435Z,97769.83
2023-02-01T08:37:04.116Z,97772.10
2023-02-01T08:39:31.272Z,97778.98
2023-02-01T08:42:17.130Z,97778.50
2023-02-01T08:44:48.213Z,97782.89
2023-02-01T08:47:24.631Z,97783.41
2023-02-01T08:50:00.641Z,97780.39
2023-02-01T08:52:34.329Z,97785.09
2023-02-01T08:55:01.490Z,97786.38
2023-02-01T08:57:28.704Z,97785.30
2023-02-01T08:59:56.327Z,97785.98
2023-02-01T09:02:35.980Z,97784.66
2023-02-01T09:05:12.498Z,97789.64
2023-02-01T09:07:52.117Z,97781.71
2023-02-01T09:10:33.453Z,97781.07
2023-02-01T09:13:05.349Z,97787.38
2023-02-01T09:15:33.395Z,97787.52
2023-02-01T09:18:10.506Z,97786.67
2023-02-01T09:20:38.656Z,97787.77
2023-02-01T09:23:07.727Z,97787.62
2023-02-01T09:25:46.845Z,97781.43
2023-02-01T09:28:13.836Z,97782.09
2023-02-01T09:30:41.135Z,97780.74
2023-02-01T09:33:11.766Z,97773.38
2023-02-01T09:35:39.282Z,97777.98
2023-02-01T09:38:09.559Z,97776.08
2023-02-01T09:40:45.564Z,97770.40
2023-02-01T09:43:26.352Z,97768.31
2023-02-01T09:46:29.000Z,97772.13
2023-02-01T09:49:01.833Z,97767.84
2023-02-01T09:51:35.873Z,97769.72
2023-02-01T09:54:10.801Z,97761.94
2023-02-01T09:56:45.243Z,97759.95
2023-02-01T09:59:35.977Z,97759.30
2023-02-01T10:02:06.391Z,97751.13
2023-02-01T10:04:34.521Z,97748.06
2023-02-01T10:07:08.324Z,97740.66
2023-02-01T10:10:39.223Z,97741.31
2023-02-01T15:15:25.694Z,97745.31
2023-02-01T15:17:58.157Z,97748.57
2023-02-01T15:20:26.984Z,97747.26
2023-02-01T15:23:01.471Z,97752.30
2023-02-01T15:25:32.603Z,97756.27
2023-02-01T15:28:00.131Z,97755.98
2023-02-01T15:30:35.378Z,97760.12
2023-02-01T15:33:21.481Z,97758.15
2023-02-01T15:35:50.321Z,97756.72
2023-02-01T15:38:53.260Z,97760.64
2023-02-01T15:41:30.369Z,97758.77
2023-02-01T15:44:02.876Z,97761.41
2023-02-01T15:46:39.361Z,97759.48
2023-02-01T15:49:30.317Z,97761.96
2023-02-01T15:51:58.873Z,97757.09
2023-02-01T15:54:50.281Z,97757.48
2023-02-01T15:57:34.294Z,97754.56
2023-02-01T16:00:10.042Z,97755.39
2023-02-01T16:02:52.491Z,97752.19
2023-02-01T16:05:40.959Z,97754.80
2023-02-01T16:08:26.056Z,97753.02
2023-02-01T16:11:10.220Z,97759.48
2023-02-01T16:13:37.404Z,97756.73
2023-02-01T16:16:09.095Z,97756.54
2023-02-01T16:18:58.266Z,97756.84
2023-02-01T16:21:39.265Z,97754.07
2023-02-01T16:24:07.135Z,97751.45
2023-02-01T16:26:39.089Z,97753.16
2023-02-01T16:29:09.491Z,97751.59
2023-02-01T16:31:40.021Z,97748.71
2023-02-01T16:34:14.700Z,97747.02
2023-02-01T16:36:42.681Z,97754.17
2023-02-01T16:39:13.157Z,97751.48
2023-02-01T16:41:41.768Z,97752.09
2023-02-01T16:44:08.633Z,97751.38
2023-02-01T16:46:39.028Z,97756.08
2023-02-01T16:49:06.466Z,97754.05
2023-02-01T16:51:34.810Z,97759.27
2023-02-01T16:54:11.338Z,97763.66
2023-02-01T16:56:40.203Z,97762.48
2023-02-01T16:59:20.720Z,97761.05
2023-02-01T17:01:47.970Z,97765.23
2023-02-01T17:04:17.646Z,97763.37
2023-02-01T17:06:56.308Z,97761.63
2023-02-01T17:09:29.183Z,97756.70
2023-02-01T17:11:56.534Z,97758.56
2023-02-01T17:14:26.444Z,97756.33
2023-02-01T17:16:55.750Z,97758.71
2023-02-01T17:19:28.670Z,97761.84
2023-02-01T17:22:00.025Z,97762.02
2023-02-01T17:24:42.289Z,97759.91
2023-02-01T17:27:21.725Z,97761.73
2023-02-01T17:29:49.592Z,97763.63
2023-02-01T17:32:24.316Z,97760.94
2023-02-01T17:35:04.208Z,97756.14
2023-02-01T17:37:37.675Z,97753.80
2023-02-01T17:40:25.770Z,97751.27
2023-02-01T17:43:08.626Z,97753.52
2023-02-01T17:46:00.809Z,97753.65
2023-02-01T17:48:29.358Z,97752.33
2023-02-01T17:51:00.848Z,97752.89
2023-02-01T17:53:31.064Z,97752.90
2023-02-01T17:56:04.063Z,97756.11
2023-02-01T17:58:49.247Z,97745.52
2023-02-01T18:01:21.998Z,97746.00
2023-02-01T18:03:51.709Z,97742.60
2023-02-01T18:06:26.908Z,97745.02
2023-02-01T18:08:58.326Z,97737.93
2023-02-01T18:11:32.951Z,97735.00
2023-02-01T18:14:00.192Z,97741.26
2023-02-01T18:16:34.181Z,97734.21
2023-02-01T18:19:24.426Z,97731.14
2023-02-01T18:21:53.208Z,97727.28
2023-02-01T18:24:23.432Z,97724.89
2023-02-01T18:26:52.143Z,97727.50
2023-02-01T18:29:19.751Z,97721.87
2023-02-01T18:31:49.961Z,97715.88
2023-02-01T18:34:22.423Z,97721.02
2023-02-01T18:36:50.664Z,97722.14
2023-02-01T18:39:25.440Z,97723.34
2023-02-01T18:41:52.708Z,97721.83
2023-02-01T18:44:19.985Z,97721.16
2023-02-01T18:46:50.285Z,97721.23
2023-02-01T18:49:18.990Z,97722.71
2023-02-01T18:51:47.225Z,97721.77
2023-02-01T18:54:14.599Z,97725.42
2023-02-01T18:56:43.348Z,97721.61
2023-02-01T18:59:17.771Z,97717.57
2023-02-01T19:01:50.657Z,97714.55
2023-02-01T19:04:26.158Z,97714.39
2023-02-01T19:07:00.430Z,97713.58
2023-02-01T19:09:29.576Z,97712.45
2023-02-01T19:11:57.069Z,97709.75
2023-02-01T19:14:26.504Z,97707.29
2023-02-01T19:16:58.486Z,97702.95
2023-02-01T22:39:33.085Z,97679.86
2023-02-01T22:42:00.463Z,97679.86
2023-02-01T22:44:54.239Z,97674.41
2023-02-01T22:47:21.926Z,97674.72
2023-02-01T22:49:49.124Z,97679.11
2023-02-01T22:52:19.555Z,97681.75
2023-02-01T22:54:59.089Z,97682.06
2023-02-01T22:57:29.095Z,97684.36
2023-02-01T22:59:56.352Z,97680.88
2023-02-01T23:02:23.908Z,97684.36
2023-02-01T23:04:51.487Z,97685.39
2023-02-01T23:07:18.795Z,97687.91
2023-02-01T23:09:54.865Z,97691.52
2023-02-01T23:12:22.136Z,97692.02
2023-02-01T23:15:07.292Z,97691.89
2023-02-01T23:17:38.228Z,97693.35
2023-02-01T23:20:07.209Z,97690.83
2023-02-01T23:22:34.684Z,97686.09
2023-02-01T23:25:12.068Z,97681.99
2023-02-01T23:27:43.265Z,97689.23
2023-02-01T23:30:11.973Z,97690.12
2023-02-01T23:32:39.551Z,97684.67
2023-02-01T23:35:07.984Z,97688.84
2023-02-01T23:37:40.819Z,97690.70
2023-02-01T23:40:08.692Z,97689.86
2023-02-01T23:45:24.649Z,97698.02
2023-02-01T23:47:52.454Z,97694.12
2023-02-01T23:50:22.779Z,97687.48
2023-02-01T23:52:50.333Z,97689.83
2023-02-01T23:55:17.673Z,97688.85
2023-02-01T23:57:44.944Z,97686.81
